Wetterdaten: Woche 08.08.16 - 14.08.16 (KW32)
Datum Zeit Temp. A. Feuchte A. Luftdruck Regen Wind Richtung Sonnenschein ET UV Solar Taupunkt Windchill Windben Empfang
08.08.2016 00:00 15,2 C 84 % 1023,4 hPa 0,0 l/m 3,8 km/h (1 Bft) S-SW 0,00 h 0,000 mm 0,0 UV-I 0 W/m 12,4 C 15,2 C 5,5 km/h (1 Bft) 98,26 %
08.08.2016 01:00 14,3 C 86 % 1023,2 hPa 0,0 l/m 3,3 km/h (1 Bft) S-SW 0,00 h 0,000 mm 0,0 UV-I 0 W/m 12,0 C 14,3 C 5,0 km/h (1 Bft) 98,94 %
08.08.2016 02:00 13,1 C 90 % 1022,9 hPa 0,0 l/m 1,6 km/h (1 Bft) S-SO 0,00 h 0,000 mm 0,0 UV-I 0 W/m 11,5 C 13,1 C 2,5 km/h (1 Bft) 98,57 %
08.08.2016 03:00 12,4 C 92 % 1022,5 hPa 0,0 l/m 1,0 km/h (0 Bft) S-SO 0,00 h 0,000 mm 0,0 UV-I 0 W/m 11,2 C 12,4 C 1,9 km/h (1 Bft) 98,59 %
08.08.2016 04:00 12,2 C 93 % 1022,1 hPa 0,0 l/m 2,5 km/h (1 Bft) S-SO 0,00 h 0,000 mm 0,0 UV-I 0 W/m 11,0 C 12,2 C 4,0 km/h (1 Bft) 99,05 %
08.08.2016 05:00 11,7 C 93 % 1021,9 hPa 0,0 l/m 0,8 km/h (0 Bft) S-SO 0,00 h 0,000 mm 0,0 UV-I 6 W/m 10,7 C 11,7 C 1,7 km/h (1 Bft) 98,81 %
08.08.2016 06:00 11,6 C 94 % 1021,9 hPa 0,0 l/m 0,1 km/h (0 Bft) N 0,03 h 0,000 mm 0,0 UV-I 19 W/m 10,7 C 11,6 C 0,2 km/h (0 Bft) 98,71 %
08.08.2016 07:00 14,0 C 90 % 1022,0 hPa 0,0 l/m 1,1 km/h (1 Bft) S-SO 0,97 h 0,000 mm 0,6 UV-I 183 W/m 12,4 C 14,0 C 2,3 km/h (1 Bft) 99,49 %
08.08.2016 08:00 16,3 C 85 % 1021,7 hPa 0,0 l/m 1,9 km/h (1 Bft) NO 1,00 h 0,102 mm 1,2 UV-I 317 W/m 13,7 C 16,3 C 3,9 km/h (1 Bft) 98,07 %
08.08.2016 09:00 18,4 C 76 % 1021,3 hPa 0,0 l/m 2,4 km/h (1 Bft) N-NO 1,00 h 0,177 mm 2,4 UV-I 476 W/m 14,2 C 18,4 C 4,9 km/h (1 Bft) 98,65 %
08.08.2016 10:00 20,2 C 71 % 1020,9 hPa 0,0 l/m 3,3 km/h (1 Bft) O-NO 1,00 h 0,280 mm 3,8 UV-I 656 W/m 14,7 C 20,2 C 6,4 km/h (2 Bft) 98,18 %
08.08.2016 11:00 21,9 C 66 % 1020,5 hPa 0,0 l/m 2,7 km/h (1 Bft) NO 1,00 h 0,381 mm 5,1 UV-I 759 W/m 15,3 C 21,9 C 5,1 km/h (1 Bft) 98,93 %
08.08.2016 12:00 23,5 C 60 % 1019,8 hPa 0,0 l/m 2,8 km/h (1 Bft) NW 1,00 h 0,457 mm 5,9 UV-I 814 W/m 15,2 C 23,5 C 6,0 km/h (2 Bft) 98,71 %
08.08.2016 13:00 24,7 C 55 % 1019,4 hPa 0,0 l/m 3,8 km/h (1 Bft) SW 1,00 h 0,508 mm 6,2 UV-I 826 W/m 14,9 C 24,6 C 7,3 km/h (2 Bft) 98,48 %
08.08.2016 14:00 25,6 C 49 % 1018,8 hPa 0,0 l/m 4,3 km/h (1 Bft) S 1,00 h 0,533 mm 5,6 UV-I 796 W/m 14,0 C 25,5 C 8,4 km/h (2 Bft) 98,87 %
08.08.2016 15:00 26,3 C 47 % 1018,3 hPa 0,0 l/m 4,6 km/h (1 Bft) SW 1,00 h 0,534 mm 4,3 UV-I 712 W/m 14,1 C 26,3 C 8,3 km/h (2 Bft) 98,68 %
08.08.2016 16:00 26,7 C 47 % 1017,6 hPa 0,0 l/m 3,5 km/h (1 Bft) O-SO 1,00 h 0,482 mm 2,8 UV-I 580 W/m 14,2 C 26,7 C 7,4 km/h (2 Bft) 98,98 %
08.08.2016 17:00 26,9 C 47 % 1017,0 hPa 0,0 l/m 2,8 km/h (1 Bft) W 1,00 h 0,407 mm 1,5 UV-I 421 W/m 14,6 C 26,9 C 5,8 km/h (2 Bft) 98,16 %
08.08.2016 18:00 26,6 C 50 % 1016,5 hPa 0,0 l/m 2,4 km/h (1 Bft) N-NO 1,00 h 0,305 mm 0,7 UV-I 245 W/m 15,4 C 26,6 C 4,7 km/h (1 Bft) 99,26 %
08.08.2016 19:00 25,8 C 54 % 1016,3 hPa 0,0 l/m 0,8 km/h (0 Bft) N-NO 0,40 h 0,177 mm 0,0 UV-I 76 W/m 15,8 C 25,8 C 2,3 km/h (1 Bft) 98,15 %
08.08.2016 20:00 22,0 C 72 % 1016,4 hPa 0,0 l/m 1,3 km/h (1 Bft) N 0,03 h 0,051 mm 0,0 UV-I 11 W/m 16,8 C 22,0 C 2,2 km/h (1 Bft) 99,22 %
08.08.2016 21:00 19,6 C 80 % 1016,7 hPa 0,0 l/m 0,2 km/h (0 Bft) N 0,00 h 0,026 mm 0,0 UV-I 0 W/m 16,2 C 19,6 C 0,9 km/h (0 Bft) 97,61 %
08.08.2016 22:00 18,9 C 80 % 1016,7 hPa 0,0 l/m 2,4 km/h (1 Bft) S-SO 0,00 h 0,000 mm 0,0 UV-I 0 W/m 15,3 C 18,9 C 3,7 km/h (1 Bft) 99,79 %
08.08.2016 23:00 18,7 C 82 % 1016,7 hPa 0,0 l/m 4,3 km/h (1 Bft) S 0,00 h 0,000 mm 0,0 UV-I 0 W/m 15,5 C 18,7 C 6,7 km/h (2 Bft) 97,99 %
09.08.2016 00:00 17,9 C 83 % 1016,7 hPa 0,0 l/m 4,4 km/h (1 Bft) S-SW 0,00 h 0,000 mm 0,0 UV-I 0 W/m 14,9 C 17,9 C 6,3 km/h (2 Bft) 99,58 %
09.08.2016 01:00 17,2 C 85 % 1016,4 hPa 0,0 l/m 3,7 km/h (1 Bft) S-SW 0,00 h 0,025 mm 0,0 UV-I 0 W/m 14,6 C 17,2 C 6,0 km/h (2 Bft) 97,95 %
09.08.2016 02:00 17,2 C 85 % 1016,5 hPa 0,0 l/m 6,6 km/h (2 Bft) S-SW 0,00 h 0,000 mm 0,0 UV-I 0 W/m 14,7 C 16,8 C 9,8 km/h (2 Bft) 99,45 %
09.08.2016 03:00 17,7 C 87 % 1016,5 hPa 1,2 l/m 7,6 km/h (2 Bft) W-SW 0,00 h 0,026 mm 0,0 UV-I 0 W/m 15,6 C 17,0 C 11,8 km/h (2 Bft) 98,10 %
09.08.2016 04:00 17,3 C 94 % 1016,4 hPa 1,0 l/m 4,5 km/h (1 Bft) SW 0,00 h 0,025 mm 0,0 UV-I 0 W/m 16,3 C 17,2 C 7,9 km/h (2 Bft) 99,32 %
09.08.2016 05:00 17,0 C 93 % 1015,9 hPa 0,0 l/m 2,6 km/h (1 Bft) S 0,00 h 0,000 mm 0,0 UV-I 4 W/m 15,8 C 17,0 C 4,3 km/h (1 Bft) 98,04 %
09.08.2016 06:00 16,2 C 95 % 1016,0 hPa 0,0 l/m 1,3 km/h (1 Bft) S 0,00 h 0,000 mm 0,0 UV-I 24 W/m 15,4 C 16,2 C 2,5 km/h (1 Bft) 99,43 %
09.08.2016 07:00 17,5 C 93 % 1016,2 hPa 0,0 l/m 2,5 km/h (1 Bft) W 0,80 h 0,026 mm 0,5 UV-I 157 W/m 16,3 C 17,5 C 4,6 km/h (1 Bft) 98,46 %
09.08.2016 08:00 19,0 C 88 % 1016,1 hPa 0,0 l/m 2,2 km/h (1 Bft) W 0,67 h 0,101 mm 0,8 UV-I 258 W/m 17,0 C 19,0 C 4,5 km/h (1 Bft) 99,26 %
09.08.2016 09:00 18,5 C 90 % 1016,8 hPa 0,0 l/m 8,2 km/h (2 Bft) W 0,00 h 0,153 mm 0,4 UV-I 60 W/m 16,8 C 17,6 C 14,8 km/h (3 Bft) 97,64 %
09.08.2016 10:00 17,6 C 89 % 1017,4 hPa 0,0 l/m 6,7 km/h (2 Bft) W 0,00 h 0,050 mm 0,5 UV-I 60 W/m 15,8 C 17,1 C 11,8 km/h (2 Bft) 99,46 %
09.08.2016 11:00 17,3 C 92 % 1017,7 hPa 0,4 l/m 7,3 km/h (2 Bft) W-SW 0,00 h 0,051 mm 1,0 UV-I 131 W/m 15,9 C 16,7 C 12,5 km/h (3 Bft) 98,26 %
09.08.2016 12:00 17,6 C 91 % 1017,7 hPa 0,2 l/m 10,8 km/h (2 Bft) W-SW 0,00 h 0,076 mm 1,8 UV-I 221 W/m 16,1 C 15,8 C 16,6 km/h (3 Bft) 99,46 %
09.08.2016 13:00 17,5 C 90 % 1017,5 hPa 0,0 l/m 8,9 km/h (2 Bft) W-SW 0,00 h 0,127 mm 1,0 UV-I 116 W/m 15,8 C 16,4 C 14,4 km/h (3 Bft) 97,79 %
09.08.2016 14:00 16,9 C 94 % 1017,6 hPa 2,2 l/m 5,7 km/h (1 Bft) W-SW 0,00 h 0,077 mm 0,9 UV-I 121 W/m 15,9 C 16,7 C 9,5 km/h (2 Bft) 99,58 %
09.08.2016 15:00 17,4 C 92 % 1017,3 hPa 0,0 l/m 7,4 km/h (2 Bft) W-SW 0,00 h 0,076 mm 1,6 UV-I 225 W/m 16,2 C 16,8 C 12,4 km/h (3 Bft) 98,27 %
09.08.2016 16:00 17,6 C 91 % 1016,9 hPa 0,0 l/m 5,3 km/h (1 Bft) SW 0,00 h 0,127 mm 0,9 UV-I 164 W/m 16,2 C 17,6 C 9,4 km/h (2 Bft) 99,36 %
09.08.2016 17:00 18,0 C 89 % 1016,7 hPa 0,0 l/m 4,8 km/h (1 Bft) S-SW 0,00 h 0,101 mm 0,6 UV-I 140 W/m 16,1 C 17,9 C 8,1 km/h (2 Bft) 98,11 %
09.08.2016 18:00 18,0 C 88 % 1016,5 hPa 0,0 l/m 3,1 km/h (1 Bft) S 0,00 h 0,077 mm 0,0 UV-I 63 W/m 15,9 C 18,0 C 5,9 km/h (2 Bft) 99,28 %
09.08.2016 19:00 17,8 C 89 % 1016,5 hPa 0,0 l/m 2,6 km/h (1 Bft) S 0,00 h 0,050 mm 0,0 UV-I 33 W/m 15,9 C 17,8 C 4,6 km/h (1 Bft) 97,99 %
09.08.2016 20:00 17,2 C 90 % 1016,7 hPa 0,0 l/m 4,2 km/h (1 Bft) W 0,00 h 0,026 mm 0,0 UV-I 0 W/m 15,5 C 17,1 C 7,9 km/h (2 Bft) 99,14 %
09.08.2016 21:00 15,7 C 93 % 1017,3 hPa 3,2 l/m 7,6 km/h (2 Bft) W-SW 0,00 h 0,000 mm 0,0 UV-I 0 W/m 14,6 C 14,9 C 13,0 km/h (3 Bft) 97,70 %
09.08.2016 22:00 15,0 C 95 % 1017,6 hPa 1,0 l/m 7,3 km/h (2 Bft) W 0,00 h 0,000 mm 0,0 UV-I 0 W/m 14,2 C 14,4 C 13,2 km/h (3 Bft) 99,37 %
09.08.2016 23:00 14,1 C 96 % 1017,8 hPa 1,6 l/m 8,5 km/h (2 Bft) W-SW 0,00 h 0,000 mm 0,0 UV-I 0 W/m 13,5 C 12,9 C 14,1 km/h (3 Bft) 97,80 %
10.08.2016 00:00 13,8 C 96 % 1017,9 hPa 0,4 l/m 10,6 km/h (2 Bft) W-SW 0,00 h 0,000 mm 0,0 UV-I 0 W/m 13,2 C 11,6 C 16,5 km/h (3 Bft) 99,46 %
10.08.2016 01:00 13,4 C 96 % 1017,9 hPa 0,8 l/m 11,1 km/h (2 Bft) SW 0,00 h 0,000 mm 0,0 UV-I 0 W/m 12,8 C 10,9 C 17,2 km/h (3 Bft) 98,20 %
10.08.2016 02:00 12,8 C 96 % 1017,7 hPa 0,6 l/m 7,7 km/h (2 Bft) SW 0,00 h 0,000 mm 0,0 UV-I 0 W/m 12,2 C 12,0 C 12,7 km/h (3 Bft) 99,42 %
10.08.2016 03:00 12,3 C 94 % 1017,4 hPa 0,2 l/m 6,8 km/h (2 Bft) SW 0,00 h 0,000 mm 0,0 UV-I 0 W/m 11,5 C 12,0 C 11,3 km/h (2 Bft) 98,00 %
10.08.2016 04:00 12,3 C 95 % 1017,1 hPa 0,2 l/m 5,4 km/h (1 Bft) SW 0,00 h 0,000 mm 0,0 UV-I 0 W/m 11,5 C 12,2 C 8,7 km/h (2 Bft) 99,63 %
10.08.2016 05:00 12,3 C 96 % 1016,7 hPa 0,2 l/m 3,3 km/h (1 Bft) W-SW 0,00 h 0,000 mm 0,0 UV-I 0 W/m 11,6 C 12,3 C 5,2 km/h (1 Bft) 97,72 %
10.08.2016 06:00 12,2 C 96 % 1016,9 hPa 0,8 l/m 5,1 km/h (1 Bft) W-SW 0,00 h 0,000 mm 0,0 UV-I 11 W/m 11,6 C 12,2 C 7,9 km/h (2 Bft) 99,20 %
10.08.2016 07:00 12,1 C 95 % 1017,3 hPa 0,8 l/m 8,4 km/h (2 Bft) W-SW 0,00 h 0,000 mm 0,0 UV-I 26 W/m 11,4 C 10,9 C 13,2 km/h (3 Bft) 98,31 %
10.08.2016 08:00 12,0 C 96 % 1017,3 hPa 1,8 l/m 7,1 km/h (2 Bft) W-SW 0,00 h 0,025 mm 0,0 UV-I 44 W/m 11,4 C 11,4 C 12,1 km/h (2 Bft) 99,70 %
10.08.2016 09:00 12,0 C 96 % 1017,5 hPa 2,4 l/m 7,1 km/h (2 Bft) W-SW 0,00 h 0,026 mm 0,0 UV-I 49 W/m 11,4 C 11,4 C 11,8 km/h (2 Bft) 98,28 %
10.08.2016 10:00 12,0 C 96 % 1017,8 hPa 1,8 l/m 8,6 km/h (2 Bft) S-SW 0,00 h 0,025 mm 0,5 UV-I 64 W/m 11,3 C 10,6 C 13,8 km/h (3 Bft) 99,57 %
10.08.2016 11:00 12,5 C 95 % 1017,8 hPa 0,4 l/m 5,3 km/h (1 Bft) SW 0,00 h 0,026 mm 0,8 UV-I 125 W/m 11,7 C 12,4 C 9,0 km/h (2 Bft) 98,14 %
10.08.2016 12:00 13,2 C 94 % 1017,7 hPa 0,4 l/m 5,2 km/h (1 Bft) SW 0,00 h 0,076 mm 1,4 UV-I 197 W/m 12,3 C 13,1 C 8,5 km/h (2 Bft) 99,61 %
10.08.2016 13:00 13,9 C 89 % 1017,2 hPa 0,0 l/m 4,3 km/h (1 Bft) S-SO 0,00 h 0,101 mm 1,4 UV-I 213 W/m 12,0 C 13,8 C 7,8 km/h (2 Bft) 97,88 %
10.08.2016 14:00 14,6 C 86 % 1016,9 hPa 0,0 l/m 4,3 km/h (1 Bft) S 0,00 h 0,102 mm 1,5 UV-I 238 W/m 12,3 C 14,6 C 7,8 km/h (2 Bft) 99,45 %
10.08.2016 15:00 15,2 C 84 % 1016,8 hPa 0,0 l/m 4,8 km/h (1 Bft) W-SW 0,10 h 0,127 mm 1,7 UV-I 298 W/m 12,5 C 15,2 C 8,2 km/h (2 Bft) 97,98 %
10.08.2016 16:00 15,1 C 81 % 1016,8 hPa 0,2 l/m 10,7 km/h (2 Bft) SW 0,07 h 0,152 mm 0,9 UV-I 150 W/m 11,9 C 13,2 C 17,2 km/h (3 Bft) 99,50 %
10.08.2016 17:00 12,5 C 88 % 1017,7 hPa 0,6 l/m 10,8 km/h (2 Bft) W-SW 0,00 h 0,102 mm 0,0 UV-I 50 W/m 10,5 C 10,4 C 21,2 km/h (4 Bft) 97,99 %
10.08.2016 18:00 11,4 C 93 % 1018,3 hPa 0,0 l/m 10,4 km/h (2 Bft) SW 0,00 h 0,051 mm 0,0 UV-I 29 W/m 10,3 C 8,9 C 16,8 km/h (3 Bft) 98,84 %
10.08.2016 19:00 11,4 C 93 % 1018,6 hPa 0,0 l/m 11,3 km/h (2 Bft) SW 0,00 h 0,025 mm 0,0 UV-I 12 W/m 10,3 C 8,5 C 17,3 km/h (3 Bft) 98,02 %
10.08.2016 20:00 11,7 C 93 % 1019,4 hPa 0,0 l/m 7,9 km/h (2 Bft) W-SW 0,00 h 0,026 mm 0,0 UV-I 4 W/m 10,6 C 10,6 C 13,5 km/h (3 Bft) 99,47 %
10.08.2016 21:00 11,7 C 92 % 1019,9 hPa 0,0 l/m 5,1 km/h (1 Bft) W-SW 0,00 h 0,000 mm 0,0 UV-I 0 W/m 10,5 C 11,4 C 9,2 km/h (2 Bft) 97,79 %
10.08.2016 22:00 11,3 C 95 % 1020,6 hPa 0,0 l/m 2,1 km/h (1 Bft) W 0,00 h 0,000 mm 0,0 UV-I 0 W/m 10,4 C 11,3 C 3,7 km/h (1 Bft) 99,40 %
10.08.2016 23:00 11,3 C 95 % 1020,9 hPa 0,0 l/m 3,2 km/h (1 Bft) S-SW 0,00 h 0,000 mm 0,0 UV-I 0 W/m 10,5 C 11,3 C 5,6 km/h (1 Bft) 98,19 %
11.08.2016 00:00 10,6 C 94 % 1020,8 hPa 0,0 l/m 2,4 km/h (1 Bft) S-SW 0,00 h 0,000 mm 0,0 UV-I 0 W/m 9,8 C 10,6 C 4,3 km/h (1 Bft) 99,49 %
11.08.2016 01:00 9,5 C 96 % 1020,9 hPa 0,0 l/m 2,5 km/h (1 Bft) S-SW 0,00 h 0,000 mm 0,0 UV-I 0 W/m 8,9 C 9,5 C 4,1 km/h (1 Bft) 97,97 %
11.08.2016 02:00 9,4 C 97 % 1020,8 hPa 0,0 l/m 5,4 km/h (1 Bft) SW 0,00 h 0,000 mm 0,0 UV-I 0 W/m 8,8 C 9,2 C 8,1 km/h (2 Bft) 99,37 %
11.08.2016 03:00 10,1 C 92 % 1021,0 hPa 1,6 l/m 6,6 km/h (2 Bft) W-SW 0,00 h 0,000 mm 0,0 UV-I 0 W/m 8,9 C 9,1 C 11,5 km/h (2 Bft) 98,04 %
11.08.2016 04:00 9,1 C 94 % 1021,1 hPa 0,0 l/m 5,1 km/h (1 Bft) S-SW 0,00 h 0,000 mm 0,0 UV-I 0 W/m 8,2 C 9,0 C 7,7 km/h (2 Bft) 99,18 %
11.08.2016 05:00 9,1 C 95 % 1021,3 hPa 0,0 l/m 1,9 km/h (1 Bft) N 0,00 h 0,000 mm 0,0 UV-I 5 W/m 8,3 C 9,1 C 3,7 km/h (1 Bft) 97,63 %
11.08.2016 06:00 9,0 C 96 % 1021,8 hPa 0,0 l/m 1,6 km/h (1 Bft) NW 0,00 h 0,000 mm 0,0 UV-I 17 W/m 8,3 C 9,0 C 3,1 km/h (1 Bft) 98,75 %
11.08.2016 07:00 10,0 C 96 % 1022,4 hPa 0,0 l/m 0,9 km/h (0 Bft) O-SO 0,00 h 0,000 mm 0,0 UV-I 49 W/m 9,4 C 10,0 C 1,8 km/h (1 Bft) 97,62 %
11.08.2016 08:00 10,8 C 95 % 1022,9 hPa 0,0 l/m 1,4 km/h (1 Bft) W 0,00 h 0,025 mm 0,0 UV-I 83 W/m 10,0 C 10,8 C 3,4 km/h (1 Bft) 99,34 %
11.08.2016 09:00 11,5 C 93 % 1023,2 hPa 0,0 l/m 3,2 km/h (1 Bft) W-SW 0,13 h 0,051 mm 1,2 UV-I 218 W/m 10,5 C 11,5 C 5,8 km/h (2 Bft) 97,49 %
11.08.2016 10:00 13,6 C 83 % 1023,2 hPa 0,0 l/m 3,5 km/h (1 Bft) W 0,70 h 0,127 mm 2,5 UV-I 582 W/m 10,7 C 13,6 C 6,7 km/h (2 Bft) 99,23 %
11.08.2016 11:00 14,7 C 78 % 1023,1 hPa 0,0 l/m 6,0 km/h (2 Bft) W-SW 0,60 h 0,280 mm 3,2 UV-I 588 W/m 10,9 C 14,1 C 10,9 km/h (2 Bft) 97,66 %
11.08.2016 12:00 14,6 C 74 % 1023,1 hPa 0,2 l/m 13,6 km/h (3 Bft) SW 0,57 h 0,279 mm 3,8 UV-I 623 W/m 10,1 C 11,3 C 22,2 km/h (4 Bft) 99,35 %
11.08.2016 13:00 16,5 C 63 % 1022,8 hPa 0,0 l/m 8,6 km/h (2 Bft) SW 0,77 h 0,356 mm 4,6 UV-I 743 W/m 9,3 C 15,3 C 16,2 km/h (3 Bft) 98,42 %
11.08.2016 14:00 16,5 C 57 % 1022,6 hPa 0,0 l/m 8,4 km/h (2 Bft) W-SW 0,40 h 0,406 mm 3,4 UV-I 449 W/m 7,8 C 15,4 C 15,2 km/h (3 Bft) 99,12 %
11.08.2016 15:00 17,5 C 54 % 1022,4 hPa 0,0 l/m 8,0 km/h (2 Bft) W-SW 0,90 h 0,330 mm 3,4 UV-I 724 W/m 8,2 C 16,6 C 14,9 km/h (3 Bft) 97,88 %
11.08.2016 16:00 17,1 C 58 % 1022,5 hPa 0,0 l/m 10,3 km/h (2 Bft) W-SW 0,77 h 0,432 mm 2,1 UV-I 496 W/m 8,7 C 15,3 C 18,1 km/h (3 Bft) 98,95 %
11.08.2016 17:00 16,6 C 65 % 1022,4 hPa 0,0 l/m 10,4 km/h (2 Bft) S-SW 0,77 h 0,330 mm 1,1 UV-I 364 W/m 10,0 C 14,7 C 17,5 km/h (3 Bft) 98,08 %
11.08.2016 18:00 16,5 C 65 % 1022,1 hPa 0,0 l/m 9,5 km/h (2 Bft) S 0,87 h 0,229 mm 0,6 UV-I 240 W/m 9,9 C 15,1 C 16,2 km/h (3 Bft) 98,16 %
11.08.2016 19:00 15,9 C 66 % 1022,1 hPa 0,0 l/m 7,8 km/h (2 Bft) S-SW 0,40 h 0,178 mm 0,0 UV-I 85 W/m 9,5 C 15,1 C 12,5 km/h (3 Bft) 98,07 %
11.08.2016 20:00 14,0 C 77 % 1022,3 hPa 0,0 l/m 4,4 km/h (1 Bft) S 0,07 h 0,076 mm 0,0 UV-I 10 W/m 10,1 C 14,0 C 8,0 km/h (2 Bft) 98,57 %
11.08.2016 21:00 12,6 C 83 % 1022,6 hPa 0,0 l/m 5,0 km/h (1 Bft) S 0,00 h 0,025 mm 0,0 UV-I 0 W/m 9,9 C 12,6 C 8,7 km/h (2 Bft) 97,79 %
11.08.2016 22:00 11,6 C 86 % 1022,9 hPa 0,0 l/m 5,8 km/h (2 Bft) S 0,00 h 0,026 mm 0,0 UV-I 0 W/m 9,3 C 11,6 C 9,7 km/h (2 Bft) 98,65 %
11.08.2016 23:00 10,7 C 87 % 1023,1 hPa 0,0 l/m 4,2 km/h (1 Bft) S 0,00 h 0,000 mm 0,0 UV-I 0 W/m 8,7 C 10,7 C 6,5 km/h (2 Bft) 98,15 %
12.08.2016 00:00 10,2 C 88 % 1023,1 hPa 0,0 l/m 7,1 km/h (2 Bft) S 0,00 h 0,000 mm 0,0 UV-I 0 W/m 8,2 C 9,6 C 10,7 km/h (2 Bft) 98,80 %
12.08.2016 01:00 9,8 C 89 % 1022,9 hPa 0,0 l/m 5,8 km/h (2 Bft) S 0,00 h 0,000 mm 0,0 UV-I 0 W/m 8,0 C 9,6 C 9,3 km/h (2 Bft) 98,20 %
12.08.2016 02:00 9,6 C 90 % 1022,7 hPa 0,0 l/m 2,2 km/h (1 Bft) S 0,00 h 0,000 mm 0,0 UV-I 0 W/m 8,0 C 9,6 C 4,1 km/h (1 Bft) 98,74 %
12.08.2016 03:00 9,3 C 92 % 1022,9 hPa 0,0 l/m 1,8 km/h (1 Bft) S 0,00 h 0,000 mm 0,0 UV-I 0 W/m 8,1 C 9,3 C 3,0 km/h (1 Bft) 98,15 %
12.08.2016 04:00 9,6 C 92 % 1022,8 hPa 0,0 l/m 0,9 km/h (0 Bft) S-SO 0,00 h 0,000 mm 0,0 UV-I 0 W/m 8,3 C 9,6 C 2,5 km/h (1 Bft) 98,43 %
12.08.2016 05:00 10,1 C 92 % 1023,4 hPa 0,0 l/m 1,8 km/h (1 Bft) S 0,00 h 0,000 mm 0,0 UV-I 0 W/m 8,8 C 10,1 C 3,9 km/h (1 Bft) 98,63 %
12.08.2016 06:00 10,7 C 92 % 1023,8 hPa 0,0 l/m 6,0 km/h (2 Bft) S-SW 0,00 h 0,000 mm 0,0 UV-I 20 W/m 9,5 C 10,5 C 9,5 km/h (2 Bft) 98,30 %
12.08.2016 07:00 11,5 C 90 % 1024,0 hPa 0,0 l/m 7,6 km/h (2 Bft) S-SW 0,00 h 0,025 mm 0,0 UV-I 39 W/m 10,0 C 10,7 C 11,9 km/h (2 Bft) 97,46 %
12.08.2016 08:00 12,3 C 88 % 1024,4 hPa 0,0 l/m 7,6 km/h (2 Bft) W-SW 0,00 h 0,026 mm 0,4 UV-I 93 W/m 10,4 C 11,5 C 12,8 km/h (3 Bft) 98,72 %
12.08.2016 09:00 12,9 C 88 % 1024,6 hPa 0,0 l/m 4,2 km/h (1 Bft) W-SW 0,00 h 0,051 mm 0,7 UV-I 103 W/m 11,0 C 12,8 C 7,8 km/h (2 Bft) 98,60 %
12.08.2016 10:00 12,8 C 90 % 1025,0 hPa 0,0 l/m 5,6 km/h (1 Bft) W-SW 0,00 h 0,050 mm 0,7 UV-I 88 W/m 11,2 C 12,0 C 8,9 km/h (2 Bft) 98,24 %
12.08.2016 11:00 13,3 C 86 % 1025,1 hPa 0,0 l/m 18,5 km/h (3 Bft) W-SW 0,00 h 0,051 mm 1,4 UV-I 184 W/m 11,0 C 8,1 C 28,0 km/h (4 Bft) 98,48 %
12.08.2016 12:00 13,9 C 85 % 1025,1 hPa 0,0 l/m 16,1 km/h (3 Bft) W-SW 0,00 h 0,127 mm 1,2 UV-I 155 W/m 11,4 C 9,5 C 24,9 km/h (4 Bft) 98,78 %
12.08.2016 13:00 14,3 C 85 % 1025,1 hPa 0,0 l/m 15,5 km/h (3 Bft) SW 0,00 h 0,102 mm 2,1 UV-I 270 W/m 11,9 C 10,3 C 24,5 km/h (4 Bft) 98,17 %
12.08.2016 14:00 14,6 C 86 % 1025,1 hPa 0,0 l/m 14,9 km/h (3 Bft) W-SW 0,00 h 0,152 mm 1,1 UV-I 143 W/m 12,2 C 10,8 C 24,6 km/h (4 Bft) 98,45 %
12.08.2016 15:00 14,7 C 86 % 1025,1 hPa 0,0 l/m 14,0 km/h (3 Bft) SW 0,00 h 0,102 mm 0,8 UV-I 106 W/m 12,3 C 11,2 C 21,9 km/h (4 Bft) 98,87 %
12.08.2016 16:00 14,9 C 86 % 1025,2 hPa 0,0 l/m 13,8 km/h (3 Bft) W-SW 0,00 h 0,076 mm 0,6 UV-I 83 W/m 12,6 C 11,5 C 21,8 km/h (4 Bft) 97,80 %
12.08.2016 17:00 14,5 C 89 % 1025,4 hPa 0,0 l/m 11,6 km/h (2 Bft) W-SW 0,00 h 0,076 mm 0,0 UV-I 37 W/m 12,7 C 12,0 C 18,9 km/h (3 Bft) 98,74 %
12.08.2016 18:00 14,7 C 88 % 1025,4 hPa 0,0 l/m 12,4 km/h (3 Bft) SW 0,00 h 0,026 mm 0,0 UV-I 38 W/m 12,7 C 11,8 C 19,4 km/h (3 Bft) 97,88 %
12.08.2016 19:00 14,6 C 90 % 1025,6 hPa 0,2 l/m 10,1 km/h (2 Bft) SW 0,00 h 0,050 mm 0,0 UV-I 13 W/m 12,9 C 12,7 C 16,2 km/h (3 Bft) 98,45 %
12.08.2016 20:00 14,2 C 94 % 1025,8 hPa 0,4 l/m 7,7 km/h (2 Bft) SW 0,00 h 0,026 mm 0,0 UV-I 4 W/m 13,2 C 13,3 C 12,7 km/h (3 Bft) 97,80 %
12.08.2016 21:00 14,3 C 94 % 1026,1 hPa 0,0 l/m 10,3 km/h (2 Bft) SW 0,00 h 0,000 mm 0,0 UV-I 0 W/m 13,4 C 12,3 C 16,7 km/h (3 Bft) 98,06 %
12.08.2016 22:00 14,6 C 93 % 1026,1 hPa 0,0 l/m 11,7 km/h (2 Bft) SW 0,00 h 0,000 mm 0,0 UV-I 0 W/m 13,5 C 11,9 C 18,7 km/h (3 Bft) 97,86 %
12.08.2016 23:00 14,6 C 94 % 1026,1 hPa 0,0 l/m 10,1 km/h (2 Bft) SW 0,00 h 0,000 mm 0,0 UV-I 0 W/m 13,7 C 12,7 C 16,5 km/h (3 Bft) 98,98 %
13.08.2016 00:00 14,7 C 95 % 1025,9 hPa 0,0 l/m 8,7 km/h (2 Bft) SW 0,00 h 0,000 mm 0,0 UV-I 0 W/m 13,9 C 13,4 C 14,7 km/h (3 Bft) 98,20 %
13.08.2016 01:00 14,8 C 94 % 1025,6 hPa 0,2 l/m 9,7 km/h (2 Bft) SW 0,00 h 0,000 mm 0,0 UV-I 0 W/m 13,8 C 13,1 C 15,9 km/h (3 Bft) 98,49 %
13.08.2016 02:00 14,9 C 94 % 1025,4 hPa 0,0 l/m 10,8 km/h (2 Bft) SW 0,00 h 0,000 mm 0,0 UV-I 0 W/m 13,9 C 12,7 C 16,9 km/h (3 Bft) 97,99 %
13.08.2016 03:00 14,9 C 95 % 1025,2 hPa 0,0 l/m 8,6 km/h (2 Bft) W-SW 0,00 h 0,000 mm 0,0 UV-I 0 W/m 14,1 C 13,7 C 13,6 km/h (3 Bft) 98,48 %
13.08.2016 04:00 15,0 C 95 % 1025,0 hPa 0,0 l/m 8,8 km/h (2 Bft) W-SW 0,00 h 0,000 mm 0,0 UV-I 0 W/m 14,2 C 13,7 C 14,6 km/h (3 Bft) 98,25 %
13.08.2016 05:00 15,2 C 95 % 1025,0 hPa 0,0 l/m 8,4 km/h (2 Bft) W-SW 0,00 h 0,000 mm 0,0 UV-I 0 W/m 14,3 C 14,1 C 13,8 km/h (3 Bft) 98,85 %
13.08.2016 06:00 15,2 C 95 % 1025,0 hPa 0,0 l/m 7,2 km/h (2 Bft) W-SW 0,00 h 0,000 mm 0,0 UV-I 7 W/m 14,4 C 14,7 C 11,8 km/h (2 Bft) 98,24 %
13.08.2016 07:00 15,6 C 94 % 1024,9 hPa 0,0 l/m 5,6 km/h (1 Bft) SW 0,00 h 0,000 mm 0,0 UV-I 58 W/m 14,7 C 15,6 C 9,2 km/h (2 Bft) 99,00 %
13.08.2016 08:00 16,6 C 92 % 1025,0 hPa 0,0 l/m 5,4 km/h (1 Bft) SW 0,07 h 0,025 mm 0,8 UV-I 177 W/m 15,2 C 16,5 C 8,4 km/h (2 Bft) 98,07 %
13.08.2016 09:00 17,7 C 87 % 1024,8 hPa 0,0 l/m 5,9 km/h (2 Bft) W-SW 0,00 h 0,102 mm 1,4 UV-I 204 W/m 15,6 C 17,5 C 9,5 km/h (2 Bft) 98,56 %
13.08.2016 10:00 19,4 C 82 % 1024,7 hPa 0,0 l/m 5,1 km/h (1 Bft) W-SW 0,87 h 0,127 mm 3,4 UV-I 599 W/m 16,2 C 19,3 C 9,7 km/h (2 Bft) 97,69 %
13.08.2016 11:00 20,1 C 78 % 1024,4 hPa 0,0 l/m 2,8 km/h (1 Bft) W-SW 0,07 h 0,330 mm 2,8 UV-I 283 W/m 16,2 C 20,1 C 6,0 km/h (2 Bft) 98,52 %
13.08.2016 12:00 21,3 C 73 % 1024,0 hPa 0,0 l/m 2,8 km/h (1 Bft) N-NO 0,47 h 0,203 mm 4,0 UV-I 529 W/m 16,3 C 21,3 C 5,2 km/h (1 Bft) 98,17 %
13.08.2016 13:00 22,6 C 70 % 1023,5 hPa 0,0 l/m 4,5 km/h (1 Bft) NO 0,87 h 0,305 mm 5,6 UV-I 694 W/m 16,9 C 22,5 C 8,4 km/h (2 Bft) 98,98 %
13.08.2016 14:00 23,3 C 67 % 1023,2 hPa 0,0 l/m 4,4 km/h (1 Bft) NO 0,77 h 0,432 mm 4,9 UV-I 660 W/m 16,7 C 23,2 C 8,6 km/h (2 Bft) 97,71 %
13.08.2016 15:00 23,8 C 65 % 1022,6 hPa 0,0 l/m 4,4 km/h (1 Bft) NO 0,87 h 0,432 mm 3,9 UV-I 637 W/m 16,9 C 23,8 C 7,9 km/h (2 Bft) 99,24 %
13.08.2016 16:00 24,5 C 63 % 1022,0 hPa 0,0 l/m 3,9 km/h (1 Bft) NO 1,00 h 0,406 mm 2,7 UV-I 583 W/m 16,9 C 24,5 C 7,6 km/h (2 Bft) 97,67 %
13.08.2016 17:00 24,4 C 60 % 1021,7 hPa 0,0 l/m 2,1 km/h (1 Bft) NW 1,00 h 0,381 mm 1,4 UV-I 409 W/m 16,1 C 24,4 C 4,9 km/h (1 Bft) 99,21 %
13.08.2016 18:00 24,1 C 61 % 1021,4 hPa 0,0 l/m 2,1 km/h (1 Bft) N-NO 1,00 h 0,280 mm 0,6 UV-I 230 W/m 16,0 C 24,1 C 4,2 km/h (1 Bft) 97,73 %
13.08.2016 19:00 23,1 C 67 % 1021,2 hPa 0,0 l/m 1,0 km/h (0 Bft) N-NO 0,43 h 0,152 mm 0,0 UV-I 67 W/m 16,7 C 23,1 C 2,5 km/h (1 Bft) 99,02 %
13.08.2016 20:00 19,7 C 82 % 1021,2 hPa 0,0 l/m 1,7 km/h (1 Bft) O-NO 0,03 h 0,051 mm 0,0 UV-I 9 W/m 16,5 C 19,7 C 2,6 km/h (1 Bft) 98,12 %
13.08.2016 21:00 18,0 C 88 % 1021,3 hPa 0,0 l/m 0,7 km/h (0 Bft) O-NO 0,00 h 0,000 mm 0,0 UV-I 0 W/m 16,0 C 18,0 C 1,6 km/h (1 Bft) 99,00 %
13.08.2016 22:00 17,1 C 91 % 1021,4 hPa 0,0 l/m 2,6 km/h (1 Bft) O-NO 0,00 h 0,000 mm 0,0 UV-I 0 W/m 15,6 C 17,1 C 3,7 km/h (1 Bft) 97,29 %
13.08.2016 23:00 16,9 C 91 % 1021,3 hPa 0,0 l/m 4,2 km/h (1 Bft) S 0,00 h 0,000 mm 0,0 UV-I 0 W/m 15,5 C 16,9 C 6,3 km/h (2 Bft) 99,09 %
14.08.2016 00:00 16,2 C 93 % 1021,4 hPa 0,0 l/m 2,4 km/h (1 Bft) S-SW 0,00 h 0,000 mm 0,0 UV-I 0 W/m 15,0 C 16,2 C 4,4 km/h (1 Bft) 97,52 %
14.08.2016 01:00 15,6 C 94 % 1021,4 hPa 0,0 l/m 2,4 km/h (1 Bft) S-SW 0,00 h 0,000 mm 0,0 UV-I 0 W/m 14,6 C 15,6 C 4,1 km/h (1 Bft) 99,09 %
14.08.2016 02:00 15,1 C 94 % 1021,3 hPa 0,0 l/m 2,5 km/h (1 Bft) O-SO 0,00 h 0,000 mm 0,0 UV-I 0 W/m 14,1 C 15,1 C 4,1 km/h (1 Bft) 97,08 %
14.08.2016 03:00 14,2 C 95 % 1021,1 hPa 0,0 l/m 0,9 km/h (0 Bft) O-SO 0,00 h 0,000 mm 0,0 UV-I 0 W/m 13,5 C 14,2 C 1,9 km/h (1 Bft) 99,23 %
14.08.2016 04:00 13,5 C 96 % 1021,0 hPa 0,0 l/m 0,8 km/h (0 Bft) O-SO 0,00 h 0,000 mm 0,0 UV-I 0 W/m 12,9 C 13,5 C 1,5 km/h (1 Bft) 98,12 %
14.08.2016 05:00 13,2 C 96 % 1021,0 hPa 0,0 l/m 0,8 km/h (0 Bft) O-SO 0,00 h 0,000 mm 0,0 UV-I 4 W/m 12,6 C 13,2 C 1,5 km/h (1 Bft) 98,73 %
14.08.2016 06:00 13,4 C 97 % 1021,0 hPa 0,0 l/m 0,9 km/h (0 Bft) O-SO 0,03 h 0,000 mm 0,0 UV-I 23 W/m 12,9 C 13,4 C 1,6 km/h (1 Bft) 98,02 %
14.08.2016 07:00 15,6 C 96 % 1021,1 hPa 0,0 l/m 1,0 km/h (0 Bft) O-NO 0,73 h 0,000 mm 0,5 UV-I 173 W/m 14,9 C 15,6 C 2,0 km/h (1 Bft) 98,44 %
14.08.2016 08:00 17,4 C 92 % 1021,1 hPa 0,0 l/m 2,1 km/h (1 Bft) NO 0,83 h 0,102 mm 1,0 UV-I 264 W/m 16,1 C 17,4 C 4,1 km/h (1 Bft) 97,89 %
14.08.2016 09:00 19,2 C 86 % 1021,2 hPa 0,0 l/m 2,0 km/h (1 Bft) NO 0,73 h 0,152 mm 2,0 UV-I 418 W/m 16,8 C 19,2 C 4,5 km/h (1 Bft) 99,09 %
14.08.2016 10:00 21,3 C 79 % 1021,1 hPa 0,0 l/m 2,9 km/h (1 Bft) NO 1,00 h 0,254 mm 3,6 UV-I 650 W/m 17,6 C 21,3 C 5,8 km/h (2 Bft) 97,91 %
14.08.2016 11:00 23,2 C 74 % 1020,7 hPa 0,0 l/m 3,1 km/h (1 Bft) NO 1,00 h 0,381 mm 4,9 UV-I 721 W/m 18,2 C 23,2 C 6,2 km/h (2 Bft) 99,09 %
14.08.2016 12:00 24,7 C 68 % 1020,3 hPa 0,0 l/m 3,4 km/h (1 Bft) NO 1,00 h 0,457 mm 5,7 UV-I 776 W/m 18,2 C 24,7 C 7,8 km/h (2 Bft) 97,57 %
14.08.2016 13:00 25,6 C 62 % 1019,9 hPa 0,0 l/m 3,8 km/h (1 Bft) NO 0,95 h 0,483 mm 5,8 UV-I 785 W/m 17,8 C 25,6 C 7,6 km/h (2 Bft) 99,30 %
14.08.2016 14:00 26,7 C 58 % 1019,3 hPa 0,0 l/m 3,9 km/h (1 Bft) W 1,02 h 0,508 mm 5,2 UV-I 747 W/m 17,8 C 26,7 C 8,1 km/h (2 Bft) 98,21 %
14.08.2016 15:00 27,2 C 56 % 1019,0 hPa 0,0 l/m 5,4 km/h (1 Bft) W 0,93 h 0,508 mm 3,8 UV-I 658 W/m 17,8 C 27,2 C 10,4 km/h (2 Bft) 99,28 %
14.08.2016 16:00 27,2 C 56 % 1018,7 hPa 0,0 l/m 4,0 km/h (1 Bft) W-SW 0,77 h 0,457 mm 2,4 UV-I 472 W/m 17,6 C 27,2 C 8,1 km/h (2 Bft) 98,20 %
14.08.2016 17:00 27,6 C 52 % 1018,3 hPa 0,0 l/m 4,7 km/h (1 Bft) W 0,87 h 0,356 mm 1,3 UV-I 401 W/m 16,7 C 27,5 C 8,9 km/h (2 Bft) 99,61 %
14.08.2016 18:00 27,0 C 53 % 1018,0 hPa 0,0 l/m 3,2 km/h (1 Bft) NW 1,00 h 0,304 mm 0,6 UV-I 230 W/m 16,7 C 27,0 C 7,4 km/h (2 Bft) 98,35 %
14.08.2016 19:00 25,3 C 62 % 1018,1 hPa 0,0 l/m 1,7 km/h (1 Bft) N-NW 0,23 h 0,178 mm 0,0 UV-I 56 W/m 17,6 C 25,3 C 4,7 km/h (1 Bft) 99,32 %
14.08.2016 20:00 22,7 C 73 % 1018,5 hPa 0,0 l/m 1,2 km/h (1 Bft) NW 0,00 h 0,051 mm 0,0 UV-I 7 W/m 17,6 C 22,7 C 2,6 km/h (1 Bft) 98,58 %
14.08.2016 21:00 20,5 C 82 % 1018,8 hPa 0,0 l/m 0,8 km/h (0 Bft) NW 0,00 h 0,025 mm 0,0 UV-I 0 W/m 17,2 C 20,5 C 1,7 km/h (1 Bft) 99,07 %
14.08.2016 22:00 19,2 C 85 % 1019,2 hPa 0,0 l/m 3,1 km/h (1 Bft) S 0,00 h 0,000 mm 0,0 UV-I 0 W/m 16,5 C 19,2 C 5,0 km/h (1 Bft) 98,53 %
14.08.2016 23:00 18,7 C 87 % 1019,3 hPa 0,0 l/m 3,8 km/h (1 Bft) S 0,00 h 0,000 mm 0,0 UV-I 0 W/m 16,5 C 18,7 C 5,3 km/h (1 Bft) 99,11 %
Min-Datum _ 11.08.16 08.08.16 09.08.16 - 08.08.16 - - - - - 11.08.16 12.08.16 08.08.16 11.08.16
_ Min-Zeit 06:10 15:18 05:28 - 02:00 - - - - - 16:18 11:00 02:00 19:06
Minimum _ 8,7 C 43 % 1015,8 hPa - 0,0 km/h (0 Bft) - - - - - 6,7 C 6,7 C 0,0 km/h (0 Bft) 89,47 %
Max-Datum _ 14.08.16 11.08.16 12.08.16 09.08.16 10.08.16 - 14.08.16 08.08.16 13.08.16 13.08.16 14.08.16 14.08.16 10.08.16 08.08.16
_ Max-Zeit 17:30 02:06 21:06 21:10 17:00 - 14:06 15:00 13:24 12:14 14:58 17:30 17:00 00:20
Maximum _ 27,8 C 97 % 1026,1 hPa 3,2 l/m 25,5 km/h
W-SW (4 Bft)
- 0,10 h 0,534 mm 6,6 UV-I 1185 W/m 19,5 C 27,8 C 51,5 km/h
W (7 Bft)
100,00 %
Durchschnitt _ 16,3 C 84 % 1020,7 hPa #25,0 l/m 5,3 km/h (1 Bft) W-SW #39:32 h #18,010 mm 2,2 UV-I 263 W/m 13,3 C 15,7 C 9,1 km/h (2 Bft) 98,55 %